createdAt,value
2023-04-04T00:01:27.401Z,5.96
2023-04-04T00:06:52.426Z,5.96
2023-04-04T00:12:16.477Z,5.93
2023-04-04T00:17:38.350Z,5.84
2023-04-04T00:23:00.650Z,5.83
2023-04-04T00:28:23.384Z,5.82
2023-04-04T00:33:45.606Z,5.80
2023-04-04T00:39:07.643Z,5.75
2023-04-04T00:44:29.374Z,5.74
2023-04-04T00:49:52.398Z,5.68
2023-04-04T00:55:14.358Z,5.59
2023-04-04T01:00:36.283Z,5.52
2023-04-04T01:05:58.353Z,5.41
2023-04-04T01:11:22.409Z,5.34
2023-04-04T01:16:44.508Z,5.30
2023-04-04T01:22:10.634Z,5.23
2023-04-04T01:27:33.383Z,5.17
2023-04-04T01:33:06.468Z,5.10
2023-04-04T01:38:44.351Z,5.02
2023-04-04T01:44:06.342Z,4.97
2023-04-04T01:49:31.342Z,4.93
2023-04-04T01:54:53.327Z,4.87
2023-04-04T02:00:16.628Z,4.71
2023-04-04T02:05:38.312Z,4.59
2023-04-04T02:11:00.591Z,4.51
2023-04-04T02:16:22.371Z,4.49
2023-04-04T02:21:44.301Z,4.44
2023-04-04T02:27:06.581Z,4.29
2023-04-04T02:32:28.586Z,4.16
2023-04-04T02:37:51.618Z,4.01
2023-04-04T02:43:22.302Z,3.89
2023-04-04T02:48:45.607Z,3.86
2023-04-04T02:54:14.301Z,3.83
2023-04-04T02:59:36.320Z,3.75
2023-04-04T03:04:58.322Z,3.73
2023-04-04T03:10:20.600Z,3.74
2023-04-04T03:15:42.568Z,3.72
2023-04-04T03:21:05.300Z,3.66
2023-04-04T03:26:27.612Z,3.54
2023-04-04T03:31:49.660Z,3.40
2023-04-04T03:37:11.278Z,3.36
2023-04-04T03:42:36.256Z,3.26
2023-04-04T03:48:02.333Z,3.15
2023-04-04T03:53:33.285Z,3.07
2023-04-04T03:58:55.330Z,3.04
2023-04-04T04:04:17.389Z,3.04
2023-04-04T04:10:04.354Z,3.03
2023-04-04T04:15:27.569Z,2.95
2023-04-04T04:20:52.566Z,2.86
2023-04-04T04:26:15.605Z,2.80
2023-04-04T04:31:37.312Z,2.80
2023-04-04T04:37:00.718Z,2.85
2023-04-04T04:42:36.508Z,2.93
2023-04-04T04:47:58.314Z,2.97
2023-04-04T04:53:29.538Z,3.02
2023-04-04T04:58:54.664Z,3.06
2023-04-04T05:04:16.570Z,3.11
2023-04-04T05:09:53.517Z,3.11
2023-04-04T05:15:15.468Z,3.09
2023-04-04T05:20:40.671Z,3.12
2023-04-04T05:26:03.320Z,3.19
2023-04-04T05:31:28.552Z,3.28
2023-04-04T05:36:55.253Z,3.37
2023-04-04T05:42:19.247Z,3.46
2023-04-04T05:47:45.277Z,3.57
2023-04-04T05:53:16.242Z,3.65
2023-04-04T05:58:40.248Z,3.73
2023-04-04T06:04:04.550Z,3.81
2023-04-04T06:09:26.231Z,3.93
2023-04-04T06:14:51.246Z,4.02
2023-04-04T06:20:14.250Z,4.11
2023-04-04T06:25:37.162Z,4.23
2023-04-04T06:30:59.284Z,4.31
2023-04-04T06:36:22.501Z,4.40
2023-04-04T06:41:46.226Z,4.49
2023-04-04T06:47:13.546Z,4.60
2023-04-04T06:52:39.056Z,4.68
2023-04-04T06:58:01.459Z,4.76
2023-04-04T07:03:23.313Z,4.86
2023-04-04T07:08:45.262Z,4.97
2023-04-04T07:14:07.223Z,5.05
2023-04-04T07:19:35.145Z,5.10
2023-04-04T07:24:57.219Z,5.13
2023-04-04T07:30:21.609Z,5.23
2023-04-04T07:35:43.200Z,5.33
2023-04-04T07:41:06.239Z,5.41
2023-04-04T07:46:28.469Z,5.48
2023-04-04T07:51:50.242Z,5.54
2023-04-04T07:57:12.180Z,5.58
2023-04-04T08:02:34.240Z,5.63
2023-04-04T08:07:56.202Z,5.73
2023-04-04T08:13:18.541Z,5.86
2023-04-04T08:18:40.188Z,5.98
2023-04-04T08:24:04.449Z,6.03
2023-04-04T08:29:26.118Z,6.00
2023-04-04T08:34:48.429Z,5.98
2023-04-04T08:40:11.226Z,5.98
2023-04-04T08:45:35.193Z,5.94
2023-04-04T08:50:58.247Z,5.94
2023-04-04T08:56:20.164Z,5.93
2023-04-04T09:01:43.140Z,5.95
2023-04-04T09:07:05.240Z,5.98
2023-04-04T09:12:29.199Z,6.01
2023-04-04T09:17:51.541Z,6.05
2023-04-04T09:23:16.182Z,6.14
2023-04-04T09:28:38.428Z,6.23
2023-04-04T09:34:00.791Z,6.30
2023-04-04T09:39:25.168Z,6.37
2023-04-04T09:44:47.217Z,6.47
2023-04-04T09:50:13.153Z,6.54
2023-04-04T09:55:43.355Z,6.62
2023-04-04T10:01:07.190Z,6.75
2023-04-04T10:06:30.225Z,6.95
2023-04-04T10:11:52.393Z,6.93
2023-04-04T10:17:20.438Z,6.88
2023-04-04T10:22:43.619Z,6.73
2023-04-04T10:28:06.168Z,6.78
2023-04-04T10:33:37.198Z,6.79
2023-04-04T10:39:22.111Z,6.84
2023-04-04T10:44:47.470Z,6.67
2023-04-04T10:50:11.152Z,6.59
2023-04-04T10:55:33.157Z,6.72
2023-04-04T11:01:01.114Z,6.93
2023-04-04T11:06:28.026Z,7.10
2023-04-04T11:12:17.004Z,7.29
2023-04-04T11:17:56.049Z,7.60
2023-04-04T11:23:29.031Z,7.65
2023-04-04T11:28:52.014Z,7.84
2023-04-04T11:34:19.004Z,7.97
2023-04-04T11:39:45.026Z,7.99
2023-04-04T11:45:07.007Z,7.91
2023-04-04T11:50:30.009Z,7.99
2023-04-04T11:55:55.996Z,8.17
2023-04-04T12:01:18.009Z,8.42
2023-04-04T12:06:42.022Z,8.68
2023-04-04T12:12:03.987Z,8.95
2023-04-04T12:17:25.988Z,9.09
2023-04-04T12:22:51.023Z,8.98
2023-04-04T12:28:14.027Z,9.16
2023-04-04T12:33:36.002Z,9.44
2023-04-04T12:39:09.001Z,9.53
2023-04-04T12:44:43.957Z,9.47
2023-04-04T12:50:05.982Z,9.44
2023-04-04T12:55:33.018Z,9.38
2023-04-04T13:01:00.124Z,9.47
2023-04-04T13:06:32.134Z,9.64
2023-04-04T13:12:11.978Z,9.90
2023-04-04T13:17:33.995Z,10.18
2023-04-04T13:22:55.982Z,10.39
2023-04-04T13:28:20.986Z,10.41
2023-04-04T13:33:43.967Z,10.61
2023-04-04T13:39:05.998Z,10.79
2023-04-04T13:44:27.978Z,10.43
2023-04-04T13:49:49.964Z,9.95
2023-04-04T13:55:13.963Z,9.53
2023-04-04T14:00:35.973Z,9.19
2023-04-04T14:06:00.339Z,9.07
2023-04-04T14:11:26.967Z,9.05
2023-04-04T14:16:48.980Z,9.14
2023-04-04T14:22:11.952Z,9.23
2023-04-04T14:27:33.965Z,9.14
2023-04-04T14:32:58.022Z,9.09
2023-04-04T14:38:19.981Z,9.09
2023-04-04T14:43:41.964Z,9.00
2023-04-04T14:49:03.966Z,9.04
2023-04-04T14:54:25.923Z,9.25
2023-04-04T15:00:02.964Z,9.66
2023-04-04T15:05:25.978Z,9.94
2023-04-04T15:10:47.953Z,9.57
2023-04-04T15:16:10.975Z,9.56
2023-04-04T15:21:33.969Z,9.81
2023-04-04T15:26:56.557Z,10.20
2023-04-04T15:32:19.015Z,10.50
2023-04-04T15:37:40.977Z,10.85
2023-04-04T15:43:03.942Z,10.96
2023-04-04T15:48:25.941Z,11.26
2023-04-04T15:53:47.935Z,11.27
2023-04-04T15:59:16.931Z,11.21
2023-04-04T16:04:38.908Z,11.06
2023-04-04T16:10:00.923Z,10.80
2023-04-04T16:15:22.928Z,10.59
2023-04-04T16:20:44.925Z,10.37
2023-04-04T16:26:06.943Z,10.29
2023-04-04T16:31:28.943Z,10.36
2023-04-04T16:36:50.963Z,10.25
2023-04-04T16:42:12.928Z,10.15
2023-04-04T16:47:34.995Z,10.28
2023-04-04T16:52:56.927Z,10.52
2023-04-04T16:58:25.910Z,10.77
2023-04-04T17:03:47.926Z,10.98
2023-04-04T17:09:09.920Z,11.18
2023-04-04T17:14:32.908Z,11.32
2023-04-04T17:19:54.922Z,11.33
2023-04-04T17:25:16.930Z,11.24
2023-04-04T17:30:39.046Z,11.04
2023-04-04T17:36:00.892Z,10.83
2023-04-04T17:41:22.897Z,10.63
2023-04-04T17:46:44.910Z,10.35
2023-04-04T17:52:06.935Z,10.14
2023-04-04T17:57:35.932Z,9.89
2023-04-04T18:02:58.019Z,9.64
2023-04-04T18:08:19.909Z,9.45
2023-04-04T18:13:41.897Z,9.31
2023-04-04T18:19:03.951Z,9.19
2023-04-04T18:24:25.917Z,9.02
2023-04-04T18:29:48.895Z,8.80
2023-04-04T18:35:10.875Z,8.62
2023-04-04T18:40:32.916Z,8.50
2023-04-04T18:45:54.916Z,8.37
2023-04-04T18:51:16.886Z,8.19
2023-04-04T18:56:39.003Z,8.00
2023-04-04T19:02:00.916Z,7.81
2023-04-04T19:07:28.875Z,7.62
2023-04-04T19:12:50.912Z,7.42
2023-04-04T19:18:12.933Z,7.30
2023-04-04T19:23:34.890Z,7.21
2023-04-04T19:28:56.902Z,7.17
2023-04-04T19:34:19.890Z,7.14
2023-04-04T19:39:42.868Z,7.08
2023-04-04T19:45:04.893Z,7.05
2023-04-04T19:50:41.884Z,7.06
2023-04-04T19:56:03.879Z,7.12
2023-04-04T20:01:32.040Z,7.17
2023-04-04T20:06:53.896Z,7.21
2023-04-04T20:12:17.876Z,7.26
2023-04-04T20:17:39.906Z,7.29
2023-04-04T20:23:01.868Z,7.28
2023-04-04T20:28:37.906Z,7.28
2023-04-04T20:33:59.878Z,7.28
2023-04-04T20:40:00.871Z,7.27
2023-04-04T20:45:46.945Z,7.22
2023-04-04T20:51:08.863Z,7.16
2023-04-04T20:56:52.873Z,7.07
2023-04-04T21:02:26.928Z,7.04
2023-04-04T21:07:49.847Z,7.03
2023-04-04T21:13:13.836Z,7.02
2023-04-04T21:18:37.843Z,6.94
2023-04-04T21:24:00.837Z,6.90
2023-04-04T21:29:28.837Z,6.84
2023-04-04T21:34:50.836Z,6.77
2023-04-04T21:40:14.834Z,6.74
2023-04-04T21:45:36.827Z,6.62
2023-04-04T21:50:58.796Z,6.58
2023-04-04T21:56:20.847Z,6.62
2023-04-04T22:01:43.852Z,6.66
2023-04-04T22:07:05.805Z,6.71
2023-04-04T22:12:29.812Z,6.73
2023-04-04T22:17:57.839Z,6.75
2023-04-04T22:23:23.117Z,6.70
2023-04-04T22:28:54.792Z,6.60
2023-04-04T22:34:16.816Z,6.60
2023-04-04T22:39:38.811Z,6.61
2023-04-04T22:45:00.815Z,6.62
2023-04-04T22:50:22.833Z,6.62
2023-04-04T22:55:45.783Z,6.60
2023-04-04T23:01:07.843Z,6.58
2023-04-04T23:06:29.810Z,6.56
2023-04-04T23:11:53.820Z,6.56
2023-04-04T23:17:15.797Z,6.49
2023-04-04T23:22:38.782Z,6.46
2023-04-04T23:28:00.779Z,6.39
2023-04-04T23:33:22.788Z,6.33
2023-04-04T23:38:44.781Z,6.26
2023-04-04T23:44:06.818Z,6.15
2023-04-04T23:49:28.782Z,6.07
2023-04-04T23:54:50.787Z,6.00
